sensor_id;sensor_type;location;lat;lon;timestamp;P1;durP1;ratioP1;P2;durP2;ratioP2
16403;SDS011;8311;50.158;8.642;2023-04-24T00:02:16;1.25;;;0.98;;
16403;SDS011;8311;50.158;8.642;2023-04-24T00:05:09;1.73;;;1.05;;
16403;SDS011;8311;50.158;8.642;2023-04-24T00:08:03;1.35;;;0.80;;
16403;SDS011;8311;50.158;8.642;2023-04-24T00:10:56;3.35;;;1.00;;
16403;SDS011;8311;50.158;8.642;2023-04-24T00:13:49;1.35;;;1.00;;
16403;SDS011;8311;50.158;8.642;2023-04-24T00:16:41;1.77;;;0.98;;
16403;SDS011;8311;50.158;8.642;2023-04-24T00:19:36;1.58;;;0.70;;
16403;SDS011;8311;50.158;8.642;2023-04-24T00:22:29;1.42;;;0.98;;
16403;SDS011;8311;50.158;8.642;2023-04-24T00:25:23;1.48;;;0.95;;
16403;SDS011;8311;50.158;8.642;2023-04-24T00:28:16;1.23;;;0.70;;
16403;SDS011;8311;50.158;8.642;2023-04-24T00:31:10;2.03;;;0.90;;
16403;SDS011;8311;50.158;8.642;2023-04-24T00:34:02;0.73;;;0.63;;
16403;SDS011;8311;50.158;8.642;2023-04-24T00:36:58;2.30;;;0.80;;
16403;SDS011;8311;50.158;8.642;2023-04-24T00:39:52;0.95;;;0.80;;
16403;SDS011;8311;50.158;8.642;2023-04-24T00:42:46;1.05;;;0.93;;
16403;SDS011;8311;50.158;8.642;2023-04-24T00:45:38;1.20;;;0.90;;
16403;SDS011;8311;50.158;8.642;2023-04-24T00:48:31;1.92;;;1.00;;
16403;SDS011;8311;50.158;8.642;2023-04-24T00:51:25;0.90;;;0.65;;
16403;SDS011;8311;50.158;8.642;2023-04-24T00:54:20;0.98;;;0.88;;
16403;SDS011;8311;50.158;8.642;2023-04-24T00:57:13;1.52;;;1.00;;
16403;SDS011;8311;50.158;8.642;2023-04-24T01:00:07;3.72;;;1.02;;
16403;SDS011;8311;50.158;8.642;2023-04-24T01:03:03;1.13;;;0.85;;
16403;SDS011;8311;50.158;8.642;2023-04-24T01:05:59;1.20;;;1.00;;
16403;SDS011;8311;50.158;8.642;2023-04-24T01:08:53;2.55;;;1.10;;
16403;SDS011;8311;50.158;8.642;2023-04-24T01:11:48;2.08;;;0.75;;
16403;SDS011;8311;50.158;8.642;2023-04-24T01:14:42;2.25;;;0.80;;
16403;SDS011;8311;50.158;8.642;2023-04-24T01:17:35;2.55;;;1.02;;
16403;SDS011;8311;50.158;8.642;2023-04-24T01:20:29;0.70;;;0.70;;
16403;SDS011;8311;50.158;8.642;2023-04-24T01:23:25;2.40;;;0.80;;
16403;SDS011;8311;50.158;8.642;2023-04-24T01:26:19;1.85;;;1.00;;
16403;SDS011;8311;50.158;8.642;2023-04-24T01:29:12;0.65;;;0.60;;
16403;SDS011;8311;50.158;8.642;2023-04-24T01:32:06;1.65;;;0.80;;
16403;SDS011;8311;50.158;8.642;2023-04-24T01:35:00;1.70;;;0.80;;
16403;SDS011;8311;50.158;8.642;2023-04-24T01:37:54;0.93;;;0.73;;
16403;SDS011;8311;50.158;8.642;2023-04-24T01:40:48;1.70;;;1.00;;
16403;SDS011;8311;50.158;8.642;2023-04-24T01:43:42;1.02;;;0.90;;
16403;SDS011;8311;50.158;8.642;2023-04-24T01:46:35;1.35;;;0.88;;
16403;SDS011;8311;50.158;8.642;2023-04-24T01:49:29;1.70;;;0.73;;
16403;SDS011;8311;50.158;8.642;2023-04-24T01:52:22;1.83;;;0.80;;
16403;SDS011;8311;50.158;8.642;2023-04-24T01:55:16;0.70;;;0.63;;
16403;SDS011;8311;50.158;8.642;2023-04-24T01:58:10;1.13;;;0.80;;
16403;SDS011;8311;50.158;8.642;2023-04-24T02:01:05;1.67;;;0.88;;
16403;SDS011;8311;50.158;8.642;2023-04-24T02:03:59;1.73;;;0.80;;
16403;SDS011;8311;50.158;8.642;2023-04-24T02:06:52;0.95;;;0.82;;
16403;SDS011;8311;50.158;8.642;2023-04-24T02:09:46;2.67;;;0.80;;
16403;SDS011;8311;50.158;8.642;2023-04-24T02:12:39;0.93;;;0.77;;
16403;SDS011;8311;50.158;8.642;2023-04-24T02:15:33;1.70;;;1.00;;
16403;SDS011;8311;50.158;8.642;2023-04-24T02:18:27;1.48;;;0.88;;
16403;SDS011;8311;50.158;8.642;2023-04-24T02:21:21;1.80;;;1.10;;
16403;SDS011;8311;50.158;8.642;2023-04-24T02:24:14;1.10;;;0.65;;
16403;SDS011;8311;50.158;8.642;2023-04-24T02:27:07;1.35;;;0.80;;
16403;SDS011;8311;50.158;8.642;2023-04-24T02:30:00;2.22;;;0.73;;
16403;SDS011;8311;50.158;8.642;2023-04-24T02:32:55;2.28;;;1.00;;
16403;SDS011;8311;50.158;8.642;2023-04-24T02:35:48;1.98;;;0.70;;
16403;SDS011;8311;50.158;8.642;2023-04-24T02:38:41;1.98;;;1.00;;
16403;SDS011;8311;50.158;8.642;2023-04-24T02:41:35;1.23;;;1.00;;
16403;SDS011;8311;50.158;8.642;2023-04-24T02:44:27;1.27;;;0.88;;
16403;SDS011;8311;50.158;8.642;2023-04-24T02:47:21;1.50;;;0.82;;
16403;SDS011;8311;50.158;8.642;2023-04-24T02:50:15;2.38;;;0.80;;
16403;SDS011;8311;50.158;8.642;2023-04-24T02:53:09;1.27;;;0.80;;
16403;SDS011;8311;50.158;8.642;2023-04-24T02:56:02;0.98;;;0.77;;
16403;SDS011;8311;50.158;8.642;2023-04-24T02:58:54;2.63;;;0.98;;
16403;SDS011;8311;50.158;8.642;2023-04-24T03:01:48;2.55;;;0.88;;
16403;SDS011;8311;50.158;8.642;2023-04-24T03:04:41;1.70;;;0.85;;
16403;SDS011;8311;50.158;8.642;2023-04-24T03:07:36;3.20;;;1.00;;
16403;SDS011;8311;50.158;8.642;2023-04-24T03:10:29;0.70;;;0.70;;
16403;SDS011;8311;50.158;8.642;2023-04-24T03:13:22;1.75;;;0.90;;
16403;SDS011;8311;50.158;8.642;2023-04-24T03:16:14;1.15;;;0.80;;
16403;SDS011;8311;50.158;8.642;2023-04-24T03:19:08;0.82;;;0.47;;
16403;SDS011;8311;50.158;8.642;2023-04-24T03:22:01;1.65;;;0.80;;
16403;SDS011;8311;50.158;8.642;2023-04-24T03:24:56;2.03;;;1.00;;
16403;SDS011;8311;50.158;8.642;2023-04-24T03:27:50;2.10;;;0.90;;
16403;SDS011;8311;50.158;8.642;2023-04-24T03:30:43;1.70;;;0.85;;
16403;SDS011;8311;50.158;8.642;2023-04-24T03:33:36;2.30;;;1.00;;
16403;SDS011;8311;50.158;8.642;2023-04-24T03:36:30;1.35;;;0.70;;
16403;SDS011;8311;50.158;8.642;2023-04-24T03:39:22;1.88;;;0.80;;
16403;SDS011;8311;50.158;8.642;2023-04-24T03:42:18;0.90;;;0.70;;
16403;SDS011;8311;50.158;8.642;2023-04-24T03:45:12;2.05;;;0.90;;
16403;SDS011;8311;50.158;8.642;2023-04-24T03:48:05;1.13;;;0.70;;
16403;SDS011;8311;50.158;8.642;2023-04-24T03:50:59;0.98;;;0.70;;
16403;SDS011;8311;50.158;8.642;2023-04-24T03:53:52;1.65;;;0.80;;
16403;SDS011;8311;50.158;8.642;2023-04-24T03:56:45;2.50;;;1.02;;
16403;SDS011;8311;50.158;8.642;2023-04-24T03:59:39;1.10;;;0.70;;
16403;SDS011;8311;50.158;8.642;2023-04-24T04:02:33;1.58;;;0.80;;
16403;SDS011;8311;50.158;8.642;2023-04-24T04:05:26;1.60;;;0.80;;
16403;SDS011;8311;50.158;8.642;2023-04-24T04:08:18;1.02;;;0.73;;
16403;SDS011;8311;50.158;8.642;2023-04-24T04:11:11;3.30;;;0.98;;
16403;SDS011;8311;50.158;8.642;2023-04-24T04:14:05;1.95;;;0.95;;
16403;SDS011;8311;50.158;8.642;2023-04-24T04:16:59;2.85;;;0.80;;
16403;SDS011;8311;50.158;8.642;2023-04-24T04:19:53;2.13;;;0.70;;
16403;SDS011;8311;50.158;8.642;2023-04-24T04:22:46;1.13;;;0.80;;
16403;SDS011;8311;50.158;8.642;2023-04-24T04:25:39;1.45;;;0.95;;
16403;SDS011;8311;50.158;8.642;2023-04-24T04:28:32;0.98;;;0.68;;
16403;SDS011;8311;50.158;8.642;2023-04-24T04:31:25;1.40;;;0.75;;
16403;SDS011;8311;50.158;8.642;2023-04-24T04:34:19;1.15;;;0.70;;
16403;SDS011;8311;50.158;8.642;2023-04-24T04:37:14;1.33;;;0.75;;
16403;SDS011;8311;50.158;8.642;2023-04-24T04:40:07;1.42;;;0.70;;
16403;SDS011;8311;50.158;8.642;2023-04-24T04:43:03;2.72;;;0.95;;
16403;SDS011;8311;50.158;8.642;2023-04-24T04:45:57;0.80;;;0.75;;
16403;SDS011;8311;50.158;8.642;2023-04-24T04:48:52;4.57;;;0.68;;
16403;SDS011;8311;50.158;8.642;2023-04-24T04:51:47;1.38;;;0.70;;
16403;SDS011;8311;50.158;8.642;2023-04-24T04:54:41;1.27;;;0.90;;
16403;SDS011;8311;50.158;8.642;2023-04-24T04:57:34;2.55;;;0.85;;
16403;SDS011;8311;50.158;8.642;2023-04-24T05:00:27;0.80;;;0.60;;
16403;SDS011;8311;50.158;8.642;2023-04-24T05:03:26;1.27;;;0.73;;
16403;SDS011;8311;50.158;8.642;2023-04-24T05:06:19;1.20;;;0.70;;
16403;SDS011;8311;50.158;8.642;2023-04-24T05:09:16;1.73;;;1.05;;
16403;SDS011;8311;50.158;8.642;2023-04-24T05:12:09;0.98;;;0.75;;
16403;SDS011;8311;50.158;8.642;2023-04-24T05:15:02;1.10;;;0.80;;
16403;SDS011;8311;50.158;8.642;2023-04-24T05:17:56;2.70;;;1.10;;
16403;SDS011;8311;50.158;8.642;2023-04-24T05:20:50;3.10;;;1.00;;
16403;SDS011;8311;50.158;8.642;2023-04-24T05:23:43;0.77;;;0.70;;
16403;SDS011;8311;50.158;8.642;2023-04-24T05:26:37;1.55;;;1.00;;
16403;SDS011;8311;50.158;8.642;2023-04-24T05:29:30;3.67;;;0.93;;
16403;SDS011;8311;50.158;8.642;2023-04-24T05:32:24;1.63;;;1.10;;
16403;SDS011;8311;50.158;8.642;2023-04-24T05:35:18;1.38;;;0.90;;
16403;SDS011;8311;50.158;8.642;2023-04-24T05:38:11;1.40;;;0.80;;
16403;SDS011;8311;50.158;8.642;2023-04-24T05:41:05;2.30;;;0.90;;
16403;SDS011;8311;50.158;8.642;2023-04-24T05:43:59;7.65;;;1.50;;
16403;SDS011;8311;50.158;8.642;2023-04-24T05:46:53;2.13;;;1.00;;
16403;SDS011;8311;50.158;8.642;2023-04-24T05:49:47;1.23;;;0.98;;
16403;SDS011;8311;50.158;8.642;2023-04-24T05:52:40;2.35;;;0.90;;
16403;SDS011;8311;50.158;8.642;2023-04-24T05:55:33;1.33;;;0.95;;
16403;SDS011;8311;50.158;8.642;2023-04-24T05:58:27;1.98;;;1.10;;
16403;SDS011;8311;50.158;8.642;2023-04-24T06:01:21;1.40;;;0.90;;
16403;SDS011;8311;50.158;8.642;2023-04-24T06:04:16;4.47;;;1.20;;
16403;SDS011;8311;50.158;8.642;2023-04-24T06:07:10;0.88;;;0.70;;
16403;SDS011;8311;50.158;8.642;2023-04-24T06:10:03;1.45;;;1.17;;
16403;SDS011;8311;50.158;8.642;2023-04-24T06:12:57;2.22;;;1.10;;
16403;SDS011;8311;50.158;8.642;2023-04-24T06:15:52;1.67;;;1.08;;
16403;SDS011;8311;50.158;8.642;2023-04-24T06:18:46;3.00;;;1.13;;
16403;SDS011;8311;50.158;8.642;2023-04-24T06:21:39;2.55;;;1.13;;
16403;SDS011;8311;50.158;8.642;2023-04-24T06:24:33;2.47;;;1.20;;
16403;SDS011;8311;50.158;8.642;2023-04-24T06:27:30;2.80;;;1.30;;
16403;SDS011;8311;50.158;8.642;2023-04-24T06:30:23;1.98;;;1.30;;
16403;SDS011;8311;50.158;8.642;2023-04-24T06:33:16;2.28;;;1.42;;
16403;SDS011;8311;50.158;8.642;2023-04-24T06:36:14;4.88;;;1.33;;
16403;SDS011;8311;50.158;8.642;2023-04-24T06:39:08;4.22;;;1.25;;
16403;SDS011;8311;50.158;8.642;2023-04-24T06:42:02;3.50;;;1.25;;
16403;SDS011;8311;50.158;8.642;2023-04-24T06:44:55;2.38;;;1.35;;
16403;SDS011;8311;50.158;8.642;2023-04-24T06:47:48;2.25;;;1.23;;
16403;SDS011;8311;50.158;8.642;2023-04-24T06:50:42;3.90;;;1.65;;
16403;SDS011;8311;50.158;8.642;2023-04-24T06:53:37;1.73;;;1.30;;
16403;SDS011;8311;50.158;8.642;2023-04-24T06:56:31;2.35;;;1.20;;
16403;SDS011;8311;50.158;8.642;2023-04-24T06:59:25;2.92;;;1.15;;
16403;SDS011;8311;50.158;8.642;2023-04-24T07:02:18;3.58;;;1.60;;
16403;SDS011;8311;50.158;8.642;2023-04-24T07:05:12;2.00;;;1.35;;
16403;SDS011;8311;50.158;8.642;2023-04-24T07:08:06;1.52;;;1.10;;
16403;SDS011;8311;50.158;8.642;2023-04-24T07:11:03;2.60;;;1.52;;
16403;SDS011;8311;50.158;8.642;2023-04-24T07:13:57;3.33;;;1.30;;
16403;SDS011;8311;50.158;8.642;2023-04-24T07:16:50;2.20;;;1.40;;
16403;SDS011;8311;50.158;8.642;2023-04-24T07:19:44;1.70;;;1.30;;
16403;SDS011;8311;50.158;8.642;2023-04-24T07:22:37;3.08;;;1.27;;
16403;SDS011;8311;50.158;8.642;2023-04-24T07:25:30;3.08;;;1.23;;
16403;SDS011;8311;50.158;8.642;2023-04-24T07:28:24;1.58;;;1.15;;
16403;SDS011;8311;50.158;8.642;2023-04-24T07:31:18;2.80;;;1.30;;
16403;SDS011;8311;50.158;8.642;2023-04-24T07:34:12;4.15;;;1.20;;
16403;SDS011;8311;50.158;8.642;2023-04-24T07:37:05;2.05;;;1.15;;
16403;SDS011;8311;50.158;8.642;2023-04-24T07:39:58;2.53;;;1.10;;
16403;SDS011;8311;50.158;8.642;2023-04-24T07:42:51;2.25;;;1.40;;
16403;SDS011;8311;50.158;8.642;2023-04-24T07:45:45;2.58;;;1.38;;
16403;SDS011;8311;50.158;8.642;2023-04-24T07:48:39;2.28;;;1.20;;
16403;SDS011;8311;50.158;8.642;2023-04-24T07:51:32;1.45;;;1.23;;
16403;SDS011;8311;50.158;8.642;2023-04-24T07:54:29;1.70;;;1.20;;
16403;SDS011;8311;50.158;8.642;2023-04-24T07:57:22;1.80;;;1.10;;
16403;SDS011;8311;50.158;8.642;2023-04-24T08:00:16;1.40;;;0.95;;
16403;SDS011;8311;50.158;8.642;2023-04-24T08:03:10;3.00;;;1.30;;
16403;SDS011;8311;50.158;8.642;2023-04-24T08:06:04;1.88;;;1.25;;
16403;SDS011;8311;50.158;8.642;2023-04-24T08:08:58;1.55;;;1.10;;
16403;SDS011;8311;50.158;8.642;2023-04-24T08:11:52;1.83;;;1.20;;
16403;SDS011;8311;50.158;8.642;2023-04-24T08:14:45;1.80;;;1.40;;
16403;SDS011;8311;50.158;8.642;2023-04-24T08:17:38;3.50;;;1.17;;
16403;SDS011;8311;50.158;8.642;2023-04-24T08:20:33;1.17;;;1.00;;
16403;SDS011;8311;50.158;8.642;2023-04-24T08:23:28;2.63;;;1.48;;
16403;SDS011;8311;50.158;8.642;2023-04-24T08:26:21;2.92;;;1.23;;
16403;SDS011;8311;50.158;8.642;2023-04-24T08:29:14;2.72;;;1.15;;
16403;SDS011;8311;50.158;8.642;2023-04-24T08:32:07;2.10;;;1.25;;
16403;SDS011;8311;50.158;8.642;2023-04-24T08:35:00;1.95;;;1.10;;
16403;SDS011;8311;50.158;8.642;2023-04-24T08:37:55;1.63;;;1.25;;
16403;SDS011;8311;50.158;8.642;2023-04-24T08:40:49;2.25;;;1.50;;
16403;SDS011;8311;50.158;8.642;2023-04-24T08:43:43;2.88;;;1.20;;
16403;SDS011;8311;50.158;8.642;2023-04-24T08:46:38;1.58;;;0.98;;
16403;SDS011;8311;50.158;8.642;2023-04-24T08:49:33;2.67;;;1.15;;
16403;SDS011;8311;50.158;8.642;2023-04-24T08:52:29;2.72;;;1.20;;
16403;SDS011;8311;50.158;8.642;2023-04-24T08:55:25;1.92;;;1.02;;
16403;SDS011;8311;50.158;8.642;2023-04-24T08:58:18;2.35;;;1.17;;
16403;SDS011;8311;50.158;8.642;2023-04-24T09:01:12;3.53;;;1.48;;
16403;SDS011;8311;50.158;8.642;2023-04-24T09:04:07;1.60;;;1.20;;
16403;SDS011;8311;50.158;8.642;2023-04-24T09:07:02;1.85;;;1.13;;
16403;SDS011;8311;50.158;8.642;2023-04-24T09:09:56;2.13;;;1.40;;
16403;SDS011;8311;50.158;8.642;2023-04-24T09:12:51;2.60;;;1.42;;
16403;SDS011;8311;50.158;8.642;2023-04-24T09:15:44;2.70;;;1.10;;
16403;SDS011;8311;50.158;8.642;2023-04-24T09:18:37;2.60;;;1.17;;
16403;SDS011;8311;50.158;8.642;2023-04-24T09:21:31;2.75;;;1.50;;
16403;SDS011;8311;50.158;8.642;2023-04-24T09:24:25;1.70;;;0.85;;
16403;SDS011;8311;50.158;8.642;2023-04-24T09:27:18;1.20;;;1.00;;
16403;SDS011;8311;50.158;8.642;2023-04-24T09:30:13;1.60;;;1.05;;
16403;SDS011;8311;50.158;8.642;2023-04-24T09:33:14;1.48;;;1.02;;
16403;SDS011;8311;50.158;8.642;2023-04-24T09:36:08;3.95;;;1.30;;
16403;SDS011;8311;50.158;8.642;2023-04-24T09:39:01;1.90;;;1.40;;
16403;SDS011;8311;50.158;8.642;2023-04-24T09:41:56;1.10;;;1.00;;
16403;SDS011;8311;50.158;8.642;2023-04-24T09:44:50;1.70;;;1.15;;
16403;SDS011;8311;50.158;8.642;2023-04-24T09:47:56;1.42;;;1.00;;
16403;SDS011;8311;50.158;8.642;2023-04-24T09:50:50;1.63;;;1.30;;
16403;SDS011;8311;50.158;8.642;2023-04-24T09:53:45;2.53;;;1.27;;
16403;SDS011;8311;50.158;8.642;2023-04-24T09:56:41;1.80;;;1.20;;
16403;SDS011;8311;50.158;8.642;2023-04-24T09:59:38;1.20;;;1.10;;
16403;SDS011;8311;50.158;8.642;2023-04-24T10:02:35;2.70;;;1.00;;
16403;SDS011;8311;50.158;8.642;2023-04-24T10:05:31;2.13;;;1.13;;
16403;SDS011;8311;50.158;8.642;2023-04-24T10:08:26;3.83;;;1.52;;
16403;SDS011;8311;50.158;8.642;2023-04-24T10:11:26;1.48;;;1.10;;
16403;SDS011;8311;50.158;8.642;2023-04-24T10:14:20;0.98;;;0.90;;
16403;SDS011;8311;50.158;8.642;2023-04-24T10:17:14;1.75;;;1.20;;
16403;SDS011;8311;50.158;8.642;2023-04-24T10:20:08;2.67;;;1.40;;
16403;SDS011;8311;50.158;8.642;2023-04-24T10:23:03;1.25;;;1.00;;
16403;SDS011;8311;50.158;8.642;2023-04-24T10:25:56;2.55;;;1.17;;
16403;SDS011;8311;50.158;8.642;2023-04-24T10:28:49;1.30;;;1.05;;
16403;SDS011;8311;50.158;8.642;2023-04-24T10:31:43;2.28;;;1.08;;
16403;SDS011;8311;50.158;8.642;2023-04-24T10:34:38;1.05;;;0.93;;
16403;SDS011;8311;50.158;8.642;2023-04-24T10:37:33;2.70;;;1.27;;
16403;SDS011;8311;50.158;8.642;2023-04-24T10:40:31;1.02;;;0.93;;
16403;SDS011;8311;50.158;8.642;2023-04-24T10:43:26;1.30;;;1.10;;
16403;SDS011;8311;50.158;8.642;2023-04-24T10:46:19;0.90;;;0.85;;
16403;SDS011;8311;50.158;8.642;2023-04-24T10:49:14;1.60;;;1.05;;
16403;SDS011;8311;50.158;8.642;2023-04-24T10:52:08;1.10;;;0.93;;
16403;SDS011;8311;50.158;8.642;2023-04-24T10:55:02;1.77;;;0.95;;
16403;SDS011;8311;50.158;8.642;2023-04-24T10:58:04;2.03;;;1.05;;
16403;SDS011;8311;50.158;8.642;2023-04-24T11:00:58;1.42;;;0.95;;
16403;SDS011;8311;50.158;8.642;2023-04-24T11:03:54;1.55;;;1.00;;
16403;SDS011;8311;50.158;8.642;2023-04-24T11:06:48;1.40;;;0.80;;
16403;SDS011;8311;50.158;8.642;2023-04-24T11:09:43;2.45;;;1.23;;
16403;SDS011;8311;50.158;8.642;2023-04-24T11:12:36;1.92;;;1.00;;
16403;SDS011;8311;50.158;8.642;2023-04-24T11:15:31;2.75;;;1.00;;
16403;SDS011;8311;50.158;8.642;2023-04-24T11:18:24;2.33;;;1.00;;
16403;SDS011;8311;50.158;8.642;2023-04-24T11:21:17;1.30;;;0.90;;
16403;SDS011;8311;50.158;8.642;2023-04-24T11:24:26;2.22;;;1.05;;
16403;SDS011;8311;50.158;8.642;2023-04-24T11:27:23;1.90;;;1.00;;
16403;SDS011;8311;50.158;8.642;2023-04-24T11:30:17;2.03;;;1.10;;
16403;SDS011;8311;50.158;8.642;2023-04-24T11:33:12;1.55;;;1.05;;
16403;SDS011;8311;50.158;8.642;2023-04-24T11:36:12;1.05;;;0.90;;
16403;SDS011;8311;50.158;8.642;2023-04-24T11:39:06;1.73;;;1.13;;
16403;SDS011;8311;50.158;8.642;2023-04-24T11:42:01;1.08;;;0.77;;
16403;SDS011;8311;50.158;8.642;2023-04-24T11:44:55;2.17;;;1.00;;
16403;SDS011;8311;50.158;8.642;2023-04-24T11:47:49;1.95;;;1.15;;
16403;SDS011;8311;50.158;8.642;2023-04-24T11:50:47;1.75;;;1.10;;
16403;SDS011;8311;50.158;8.642;2023-04-24T11:53:40;1.13;;;0.75;;
16403;SDS011;8311;50.158;8.642;2023-04-24T11:56:35;1.45;;;0.90;;
16403;SDS011;8311;50.158;8.642;2023-04-24T11:59:29;0.88;;;0.68;;
16403;SDS011;8311;50.158;8.642;2023-04-24T12:02:27;1.20;;;1.10;;
16403;SDS011;8311;50.158;8.642;2023-04-24T12:05:20;0.73;;;0.73;;
16403;SDS011;8311;50.158;8.642;2023-04-24T12:08:27;1.00;;;0.75;;
16403;SDS011;8311;50.158;8.642;2023-04-24T12:11:21;1.70;;;1.10;;
16403;SDS011;8311;50.158;8.642;2023-04-24T12:14:14;1.60;;;0.90;;
16403;SDS011;8311;50.158;8.642;2023-04-24T12:17:07;1.35;;;0.95;;
16403;SDS011;8311;50.158;8.642;2023-04-24T12:20:02;1.70;;;1.05;;
16403;SDS011;8311;50.158;8.642;2023-04-24T12:22:58;1.15;;;0.90;;
16403;SDS011;8311;50.158;8.642;2023-04-24T12:25:53;3.78;;;1.20;;
16403;SDS011;8311;50.158;8.642;2023-04-24T12:28:52;1.88;;;0.90;;
16403;SDS011;8311;50.158;8.642;2023-04-24T12:31:45;2.33;;;1.10;;
16403;SDS011;8311;50.158;8.642;2023-04-24T12:34:38;2.97;;;1.10;;
16403;SDS011;8311;50.158;8.642;2023-04-24T12:37:32;2.22;;;1.10;;
16403;SDS011;8311;50.158;8.642;2023-04-24T12:40:27;1.65;;;1.00;;
16403;SDS011;8311;50.158;8.642;2023-04-24T12:43:23;1.15;;;1.02;;
16403;SDS011;8311;50.158;8.642;2023-04-24T12:46:16;1.30;;;0.90;;
16403;SDS011;8311;50.158;8.642;2023-04-24T12:49:13;2.08;;;1.13;;
16403;SDS011;8311;50.158;8.642;2023-04-24T12:52:06;1.13;;;1.02;;
16403;SDS011;8311;50.158;8.642;2023-04-24T12:55:00;1.45;;;0.90;;
16403;SDS011;8311;50.158;8.642;2023-04-24T12:57:54;2.83;;;1.05;;
16403;SDS011;8311;50.158;8.642;2023-04-24T13:00:49;1.33;;;1.00;;
16403;SDS011;8311;50.158;8.642;2023-04-24T13:03:42;1.45;;;1.08;;
16403;SDS011;8311;50.158;8.642;2023-04-24T13:06:36;2.83;;;1.25;;
16403;SDS011;8311;50.158;8.642;2023-04-24T13:09:29;1.95;;;1.10;;
16403;SDS011;8311;50.158;8.642;2023-04-24T13:12:22;2.05;;;1.30;;
16403;SDS011;8311;50.158;8.642;2023-04-24T13:15:16;3.78;;;1.20;;
16403;SDS011;8311;50.158;8.642;2023-04-24T13:18:11;2.83;;;1.30;;
16403;SDS011;8311;50.158;8.642;2023-04-24T13:21:04;1.27;;;1.02;;
16403;SDS011;8311;50.158;8.642;2023-04-24T13:23:57;2.33;;;1.13;;
16403;SDS011;8311;50.158;8.642;2023-04-24T13:26:50;2.15;;;1.25;;
16403;SDS011;8311;50.158;8.642;2023-04-24T13:29:44;2.88;;;1.35;;
16403;SDS011;8311;50.158;8.642;2023-04-24T13:32:37;1.35;;;1.08;;
16403;SDS011;8311;50.158;8.642;2023-04-24T13:35:32;2.97;;;1.20;;
16403;SDS011;8311;50.158;8.642;2023-04-24T13:38:25;1.85;;;1.15;;
16403;SDS011;8311;50.158;8.642;2023-04-24T13:41:18;1.85;;;1.17;;
16403;SDS011;8311;50.158;8.642;2023-04-24T13:44:11;0.95;;;0.95;;
16403;SDS011;8311;50.158;8.642;2023-04-24T13:47:04;3.03;;;1.25;;
16403;SDS011;8311;50.158;8.642;2023-04-24T13:49:59;1.90;;;1.17;;
16403;SDS011;8311;50.158;8.642;2023-04-24T13:52:53;3.10;;;1.40;;
16403;SDS011;8311;50.158;8.642;2023-04-24T13:55:47;1.52;;;1.05;;
16403;SDS011;8311;50.158;8.642;2023-04-24T13:58:40;2.55;;;1.40;;
16403;SDS011;8311;50.158;8.642;2023-04-24T14:01:33;2.50;;;1.10;;
16403;SDS011;8311;50.158;8.642;2023-04-24T14:04:27;2.65;;;1.23;;
16403;SDS011;8311;50.158;8.642;2023-04-24T14:07:21;4.60;;;1.17;;
16403;SDS011;8311;50.158;8.642;2023-04-24T14:10:16;2.20;;;1.30;;
16403;SDS011;8311;50.158;8.642;2023-04-24T14:13:09;3.22;;;1.25;;
16403;SDS011;8311;50.158;8.642;2023-04-24T14:16:02;1.35;;;0.90;;
16403;SDS011;8311;50.158;8.642;2023-04-24T14:18:55;2.10;;;1.20;;
16403;SDS011;8311;50.158;8.642;2023-04-24T14:21:48;1.80;;;1.40;;
16403;SDS011;8311;50.158;8.642;2023-04-24T14:24:41;2.30;;;1.33;;
16403;SDS011;8311;50.158;8.642;2023-04-24T14:27:35;2.40;;;1.33;;
16403;SDS011;8311;50.158;8.642;2023-04-24T14:30:28;1.73;;;1.20;;
16403;SDS011;8311;50.158;8.642;2023-04-24T14:33:21;2.33;;;1.35;;
16403;SDS011;8311;50.158;8.642;2023-04-24T14:36:15;2.08;;;1.20;;
16403;SDS011;8311;50.158;8.642;2023-04-24T14:39:08;3.90;;;1.30;;
16403;SDS011;8311;50.158;8.642;2023-04-24T14:42:02;2.33;;;1.55;;
16403;SDS011;8311;50.158;8.642;2023-04-24T14:44:57;2.28;;;1.40;;
16403;SDS011;8311;50.158;8.642;2023-04-24T14:47:50;2.67;;;1.63;;
16403;SDS011;8311;50.158;8.642;2023-04-24T14:50:44;3.35;;;1.60;;
16403;SDS011;8311;50.158;8.642;2023-04-24T14:53:37;2.08;;;1.52;;
16403;SDS011;8311;50.158;8.642;2023-04-24T14:56:30;1.95;;;1.55;;
16403;SDS011;8311;50.158;8.642;2023-04-24T14:59:23;3.13;;;2.00;;
16403;SDS011;8311;50.158;8.642;2023-04-24T15:02:18;2.90;;;1.60;;
16403;SDS011;8311;50.158;8.642;2023-04-24T15:05:12;2.53;;;1.52;;
16403;SDS011;8311;50.158;8.642;2023-04-24T15:08:06;3.05;;;1.85;;
16403;SDS011;8311;50.158;8.642;2023-04-24T15:10:59;3.10;;;1.80;;
16403;SDS011;8311;50.158;8.642;2023-04-24T15:13:53;2.55;;;1.65;;
16403;SDS011;8311;50.158;8.642;2023-04-24T15:16:45;3.42;;;1.80;;
16403;SDS011;8311;50.158;8.642;2023-04-24T15:19:40;3.60;;;1.60;;
16403;SDS011;8311;50.158;8.642;2023-04-24T15:22:33;2.75;;;1.88;;
16403;SDS011;8311;50.158;8.642;2023-04-24T15:25:28;2.13;;;1.50;;
16403;SDS011;8311;50.158;8.642;2023-04-24T15:28:21;3.42;;;1.80;;
16403;SDS011;8311;50.158;8.642;2023-04-24T15:31:14;4.10;;;2.15;;
16403;SDS011;8311;50.158;8.642;2023-04-24T15:34:07;3.42;;;1.73;;
16403;SDS011;8311;50.158;8.642;2023-04-24T15:37:02;2.15;;;1.50;;
16403;SDS011;8311;50.158;8.642;2023-04-24T15:39:55;2.83;;;1.75;;
16403;SDS011;8311;50.158;8.642;2023-04-24T15:42:50;5.35;;;2.03;;
16403;SDS011;8311;50.158;8.642;2023-04-24T15:45:43;4.40;;;1.77;;
16403;SDS011;8311;50.158;8.642;2023-04-24T15:48:37;2.35;;;1.50;;
16403;SDS011;8311;50.158;8.642;2023-04-24T15:51:32;2.08;;;1.48;;
16403;SDS011;8311;50.158;8.642;2023-04-24T15:54:27;3.47;;;1.73;;
16403;SDS011;8311;50.158;8.642;2023-04-24T15:57:20;2.22;;;1.48;;
16403;SDS011;8311;50.158;8.642;2023-04-24T16:00:14;4.63;;;1.67;;
16403;SDS011;8311;50.158;8.642;2023-04-24T16:03:08;2.38;;;1.60;;
16403;SDS011;8311;50.158;8.642;2023-04-24T16:06:02;4.30;;;1.80;;
16403;SDS011;8311;50.158;8.642;2023-04-24T16:08:56;1.85;;;1.67;;
16403;SDS011;8311;50.158;8.642;2023-04-24T16:11:53;3.40;;;2.03;;
16403;SDS011;8311;50.158;8.642;2023-04-24T16:14:46;5.93;;;2.38;;
16403;SDS011;8311;50.158;8.642;2023-04-24T16:17:40;3.10;;;2.03;;
16403;SDS011;8311;50.158;8.642;2023-04-24T16:20:33;6.18;;;2.25;;
16403;SDS011;8311;50.158;8.642;2023-04-24T16:23:26;3.33;;;1.67;;
16403;SDS011;8311;50.158;8.642;2023-04-24T16:26:19;3.40;;;1.95;;
16403;SDS011;8311;50.158;8.642;2023-04-24T16:29:14;5.00;;;1.95;;
16403;SDS011;8311;50.158;8.642;2023-04-24T16:32:08;3.60;;;1.75;;
16403;SDS011;8311;50.158;8.642;2023-04-24T16:35:02;2.80;;;1.77;;
16403;SDS011;8311;50.158;8.642;2023-04-24T16:37:55;3.13;;;1.70;;
16403;SDS011;8311;50.158;8.642;2023-04-24T16:40:48;2.65;;;1.90;;
16403;SDS011;8311;50.158;8.642;2023-04-24T16:43:41;1.88;;;1.33;;
16403;SDS011;8311;50.158;8.642;2023-04-24T16:46:36;3.90;;;1.70;;
16403;SDS011;8311;50.158;8.642;2023-04-24T16:49:29;2.65;;;1.80;;
16403;SDS011;8311;50.158;8.642;2023-04-24T16:52:22;3.28;;;1.80;;
16403;SDS011;8311;50.158;8.642;2023-04-24T16:55:16;3.17;;;1.80;;
16403;SDS011;8311;50.158;8.642;2023-04-24T16:58:09;2.72;;;1.65;;
16403;SDS011;8311;50.158;8.642;2023-04-24T17:01:04;2.65;;;1.50;;
16403;SDS011;8311;50.158;8.642;2023-04-24T17:03:59;4.53;;;2.13;;
16403;SDS011;8311;50.158;8.642;2023-04-24T17:06:52;2.83;;;1.65;;
16403;SDS011;8311;50.158;8.642;2023-04-24T17:09:45;2.70;;;1.98;;
16403;SDS011;8311;50.158;8.642;2023-04-24T17:12:39;3.47;;;1.90;;
16403;SDS011;8311;50.158;8.642;2023-04-24T17:15:32;3.88;;;2.05;;
16403;SDS011;8311;50.158;8.642;2023-04-24T17:18:25;3.83;;;2.03;;
16403;SDS011;8311;50.158;8.642;2023-04-24T17:21:20;4.00;;;2.13;;
16403;SDS011;8311;50.158;8.642;2023-04-24T17:24:14;3.30;;;1.60;;
16403;SDS011;8311;50.158;8.642;2023-04-24T17:27:07;3.53;;;1.55;;
16403;SDS011;8311;50.158;8.642;2023-04-24T17:30:06;2.97;;;1.75;;
16403;SDS011;8311;50.158;8.642;2023-04-24T17:33:00;2.58;;;1.77;;
16403;SDS011;8311;50.158;8.642;2023-04-24T17:35:54;3.47;;;1.83;;
16403;SDS011;8311;50.158;8.642;2023-04-24T17:38:49;3.72;;;2.10;;
16403;SDS011;8311;50.158;8.642;2023-04-24T17:41:42;3.00;;;2.10;;
16403;SDS011;8311;50.158;8.642;2023-04-24T17:44:35;2.92;;;1.80;;